Data for 07/01/2010

Time Sea-Level Adjusted Pressure Absolute Pressure Temperature Relative Humidity Dew Point   
(mb) (inHg) (mb) (inHg) (C) (F) (%) (C) (F)
00:05 1018 30.06 847 25.01 14.5 58.1 75 10.3 50.5
00:10 1018 30.06 847 25.01 14.3 57.7 77 10.4 50.6
00:15 1017 30.03 847 25.01 14 57.2 78 10.3 50.5
00:20 1017 30.03 846 24.98 13.7 56.7 79 10.3 50.5
00:25 1017 30.03 846 24.98 13.5 56.4 80 10.2 50.3
00:30 1017 30.03 847 25.01 13.6 56.4 79 10.1 50.2
00:35 1018 30.06 847 25.01 13.6 56.4 80 10.2 50.4
00:40 1018 30.06 847 25.01 13.4 56 81 10.1 50.2
00:45 1017 30.03 847 25.01 13.3 55.9 81 10 50.1
00:50 1017 30.03 847 25.01 13.1 55.6 82 10.1 50.2
00:55 1017 30.03 847 25.01 12.8 55.1 84 10.2 50.4
01:00 1017 30.03 847 25.01 12.5 54.5 84 9.9 49.8
01:05 1017 30.03 847 25.01 12.4 54.3 85 10 49.9
01:10 1017 30.03 847 25.01 12.2 53.9 85 9.8 49.6
01:15 1018 30.06 847 25.01 12.3 54.1 85 9.8 49.6
01:20 1018 30.06 847 25.01 12.3 54.2 85 9.8 49.7
01:25 1018 30.06 847 25.01 12.3 54.1 85 9.8 49.6
01:30 1018 30.06 848 25.04 12.4 54.3 84 9.9 49.8
01:35 1018 30.06 848 25.04 12.3 54.2 84 9.7 49.5
01:40 1018 30.06 847 25.01 12.2 54 85 9.7 49.5
01:45 1018 30.06 847 25.01 12.2 54 85 9.7 49.5
01:50 1018 30.06 847 25.01 12.2 53.9 86 9.9 49.8
01:55 1018 30.06 847 25.01 11.9 53.5 87 9.9 49.8
02:00 1017 30.03 847 25.01 11.9 53.4 87 9.8 49.6
02:05 1017 30.03 847 25.01 11.9 53.4 87 9.8 49.7
02:10 1018 30.06 847 25.01 11.8 53.2 87 9.7 49.4
02:15 1018 30.06 847 25.01 11.9 53.3 87 9.8 49.6
02:20 1018 30.06 847 25.01 12 53.6 86 9.8 49.6
02:25 1017 30.03 847 25.01 12.1 53.8 85 9.8 49.6
02:30 1018 30.06 847 25.01 12.6 54.7 83 9.7 49.5
02:35 1018 30.06 847 25.01 12.5 54.5 84 9.9 49.9
02:40 1018 30.06 847 25.01 12.6 54.6 83 9.9 49.7
02:45 1018 30.06 847 25.01 12.7 54.8 83 9.9 49.7
02:50 1018 30.06 847 25.01 12.7 54.9 82 9.8 49.6
02:55 1017 30.03 846 24.98 12.6 54.7 84 10 50
03:00 1016 30 846 24.98 12.4 54.2 85 10 49.9
03:05 1016 30 845 24.95 12.4 54.3 84 9.8 49.7
03:10 1017 30.03 846 24.98 12.5 54.4 85 10 49.9
03:15 1017 30.03 846 24.98 12.6 54.6 83 9.8 49.7
03:20 1017 30.03 846 24.98 12.9 55.2 82 9.9 49.9
03:25 1017 30.03 846 24.98 13.2 55.7 79 9.6 49.3
03:30 1016 30 846 24.98 13.3 56 80 10 50.1
03:35 1017 30.03 846 24.98 13.1 55.6 81 9.9 49.8
03:40 1017 30.03 846 24.98 13.1 55.6 80 9.8 49.6
03:45 1017 30.03 846 24.98 13.2 55.7 79 9.6 49.3
03:50 1017 30.03 846 24.98 13.4 56.2 77 9.4 49
03:55 1017 30.03 846 24.98 13.7 56.7 76 9.5 49.1
04:00 1016 30 846 24.98 14.1 57.3 73 9.3 48.7
04:05 1016 30 845 24.95 14.3 57.7 72 9.3 48.7
04:10 1016 30 846 24.98 14.4 58 71 9.2 48.6
04:15 1016 30 845 24.95 14.5 58.1 69 9 48.2
04:20 1016 30 846 24.98 14.7 58.4 69 9.1 48.4
04:25 1016 30 845 24.95 14.3 57.8 76 10.3 50.5
04:30 1016 30 846 24.98 13.4 56.2 81 10.2 50.4
04:35 1016 30 846 24.98 12.9 55.2 84 10.2 50.4
04:40 1016 30 846 24.98 12.7 54.8 85 10.3 50.5
04:45 1017 30.03 846 24.98 12.7 54.9 84 10.1 50.1
04:50 1017 30.03 846 24.98 12.8 55.1 83 10 50
04:55 1017 30.03 846 24.98 12.9 55.3 83 10.1 50.2
05:00 1016 30 846 24.98 12.9 55.2 84 10.2 50.3
05:05 1017 30.03 846 24.98 12.8 55 84 10.2 50.3
05:10 1017 30.03 846 24.98 12.7 54.9 85 10.2 50.4
05:15 1017 30.03 846 24.98 12.6 54.7 85 10.2 50.4
05:20 1017 30.03 846 24.98 12.3 54.2 87 10.3 50.5
05:25 1017 30.03 846 24.98 12 53.7 88 10.2 50.3
05:30 1017 30.03 846 24.98 11.9 53.4 89 10.1 50.2
05:35 1017 30.03 846 24.98 11.8 53.3 89 10.1 50.2
05:40 1017 30.03 846 24.98 11.9 53.5 88 10.1 50.1
05:45 1017 30.03 846 24.98 11.8 53.2 89 10.1 50.1
05:50 1017 30.03 846 24.98 11.6 52.9 90 10 50
05:55 1017 30.03 846 24.98 11.6 52.8 90 10 50.1
06:00 1017 30.03 846 24.98 11.7 53.1 89 10 50
06:05 1017 30.03 846 24.98 11.9 53.3 89 10.2 50.3
06:10 1017 30.03 846 24.98 11.9 53.4 89 10.1 50.2
06:15 1017 30.03 846 24.98 12 53.5 88 10.1 50.2
06:20 1017 30.03 846 24.98 11.9 53.3 89 10.1 50.1
06:25 1017 30.03 846 24.98 11.8 53.2 89 10.1 50.2
06:30 1017 30.03 846 24.98 11.7 53.1 90 10.2 50.3
06:35 1017 30.03 846 24.98 11.6 52.9 91 10.1 50.2
06:40 1017 30.03 847 25.01 11.7 53 90 10.1 50.2
06:45 1018 30.06 847 25.01 11.8 53.2 89 10.1 50.2
06:50 1017 30.03 847 25.01 11.8 53.3 89 10.1 50.1
06:55 1017 30.03 847 25.01 12.1 53.7 87 10 50.1
07:00 1017 30.03 846 24.98 12.2 53.9 87 10 50.1
07:05 1017 30.03 846 24.98 12.2 54 88 10.2 50.4
07:10 1017 30.03 846 24.98 12.3 54.2 87 10.3 50.5
07:15 1017 30.03 846 24.98 12.5 54.4 87 10.4 50.8
07:20 1017 30.03 846 24.98 12.6 54.7 86 10.3 50.6
07:25 1017 30.03 846 24.98 12.7 54.8 86 10.5 50.8
07:30 1017 30.03 847 25.01 12.7 54.9 86 10.5 50.9
07:35 1017 30.03 846 24.98 12.8 55.1 86 10.5 50.9
07:40 1017 30.03 846 24.98 12.7 54.9 87 10.6 51.2
07:45 1017 30.03 846 24.98 12.5 54.6 87 10.5 50.9
07:50 1017 30.03 846 24.98 12.6 54.6 87 10.6 51
07:55 1017 30.03 846 24.98 12.4 54.3 87 10.3 50.5
08:00 1017 30.03 846 24.98 12.5 54.5 87 10.4 50.7
08:05 1017 30.03 846 24.98 12.7 54.9 86 10.5 50.9
08:10 1017 30.03 846 24.98 12.7 54.9 86 10.4 50.8
08:15 1017 30.03 846 24.98 12.6 54.6 86 10.4 50.7
08:20 1017 30.03 846 24.98 12.7 54.8 86 10.4 50.7
08:25 1017 30.03 847 25.01 12.8 55 86 10.5 50.8
08:30 1017 30.03 846 24.98 13 55.4 84 10.4 50.7
08:35 1017 30.03 846 24.98 13.6 56.5 80 10.3 50.5
08:40 1017 30.03 846 24.98 14.2 57.5 80 10.8 51.4
08:45 1017 30.03 846 24.98 14 57.2 80 10.7 51.2
08:50 1017 30.03 846 24.98 14.1 57.3 80 10.6 51.2
08:55 1017 30.03 846 24.98 14.5 58.1 76 10.4 50.7
09:00 1017 30.03 846 24.98 14.8 58.7 77 11 51.7
09:05 1017 30.03 846 24.98 14.6 58.2 77 10.6 51
09:10 1017 30.03 846 24.98 15.3 59.5 73 10.5 50.9
09:15 1017 30.03 846 24.98 15.2 59.3 73 10.4 50.6
09:20 1017 30.03 846 24.98 15.2 59.4 71 10 50
09:25 1017 30.03 846 24.98 16.1 60.9 70 10.7 51.3
09:30 1017 30.03 846 24.98 17 62.6 65 10.5 50.9
09:35 1017 30.03 846 24.98 17.8 64.1 61 10.4 50.7
09:40 1017 30.03 846 24.98 18.2 64.7 62 10.8 51.4
09:45 1016 30 846 24.98 17.9 64.2 59 9.8 49.7
09:50 1016 30 846 24.98 17.7 63.8 64 10.8 51.4
09:55 1016 30 846 24.98 17.3 63.2 64 10.7 51.2
10:00 1016 30 846 24.98 17.2 63 65 10.8 51.4
10:05 1016 30 845 24.95 17.2 63 62 10 50.1
10:10 1016 30 845 24.95 17.7 63.8 63 10.7 51.3
10:15 1016 30 845 24.95 17.8 64 61 10.3 50.5
10:20 1016 30 845 24.95 18.4 65.1 59 10.3 50.5
10:25 1016 30 845 24.95 18.4 65.1 60 10.7 51.3
10:30 1016 30 845 24.95 19.1 66.4 58 10.7 51.2
10:35 1016 30 845 24.95 19 66.2 58 10.7 51.3
10:40 1016 30 845 24.95 19.3 66.8 55 10.1 50.1
10:45 1016 30 845 24.95 20.1 68.2 55 10.9 51.6
10:50 1016 30 845 24.95 20.3 68.5 54 10.9 51.6
10:55 1016 30 845 24.95 21.1 70 51 10.7 51.2
11:00 1016 30 845 24.95 21.5 70.7 53 11.6 52.8
11:05 1016 30 845 24.95 21.1 69.9 51 10.6 51.1
11:10 1016 30 845 24.95 21.2 70.2 53 11.4 52.5
11:15 1016 30 845 24.95 21.9 71.4 50 11.2 52.1
11:20 1016 30 845 24.95 21.3 70.3 52 11.3 52.4
11:25 1015 29.97 845 24.95 21.3 70.4 53 11.6 52.8
11:30 1015 29.97 845 24.95 21.9 71.4 52 11.8 53.3
11:35 1015 29.97 845 24.95 21.8 71.3 52 11.7 53.1
11:40 1015 29.97 845 24.95 21.5 70.7 55 12.3 54.2
11:45 1015 29.97 844 24.92 21.6 70.9 53 11.6 52.9
11:50 1015 29.97 844 24.92 22.5 72.5 50 11.7 53
11:55 1015 29.97 844 24.92 23.5 74.2 49 12.3 54.2
12:00 1015 29.97 844 24.92 23.6 74.4 49 12.3 54.1
12:05 1015 29.97 844 24.92 23.2 73.7 50 12.4 54.3
12:10 1015 29.97 844 24.92 23 73.4 51 12.5 54.6
12:15 1015 29.97 844 24.92 23.2 73.7 49 11.9 53.5
12:20 1015 29.97 844 24.92 23.4 74.1 50 12.5 54.5
12:25 1015 29.97 844 24.92 23.8 74.8 48 12.4 54.2
12:30 1014 29.94 844 24.92 23 73.4 56 14 57.2
12:35 1014 29.94 844 24.92 22.6 72.7 54 12.9 55.2
12:40 1014 29.94 844 24.92 23.5 74.3 51 13 55.3
12:45 1014 29.94 844 24.92 24.1 75.3 51 13.4 56.1
12:50 1014 29.94 843 24.89 23.5 74.3 53 13.5 56.4
12:55 1014 29.94 843 24.89 23.2 73.8 51 12.8 55
13:00 1014 29.94 843 24.89 24.2 75.5 49 13 55.5
13:05 1014 29.94 843 24.89 23.9 75.1 54 14.2 57.6
13:10 1014 29.94 843 24.89 22.6 72.8 58 14 57.2
13:15 1014 29.94 843 24.89 21.6 70.9 61 13.9 57
13:20 1014 29.94 843 24.89 21.1 69.9 62 13.5 56.3
13:25 1014 29.94 843 24.89 21.3 70.3 63 14 57.2
13:30 1013 29.91 842 24.86 20.9 69.6 64 14 57.1
13:35 1013 29.91 843 24.89 20.5 68.9 62 13.1 55.7
13:40 1013 29.91 843 24.89 21.1 70 60 13.1 55.5
13:45 1013 29.91 843 24.89 21.1 70 60 13.1 55.5
13:50 1013 29.91 843 24.89 20.9 69.7 63 13.7 56.6
13:55 1013 29.91 842 24.86 20.8 69.4 62 13.4 56.2
14:00 1013 29.91 842 24.86 20.8 69.5 69 14.9 58.9
14:05 1013 29.91 842 24.86 20.8 69.5 69 14.9 58.9
14:10 1013 29.91 842 24.86 20.7 69.3 66 14.3 57.8
14:15 1013 29.91 842 24.86 20.4 68.7 72 15.2 59.4
14:20 1013 29.91 842 24.86 20 68 78 16.1 60.9
14:25 1013 29.91 842 24.86 19.8 67.6 73 14.9 58.8
14:30 1013 29.91 842 24.86 19.7 67.4 74 15.1 59.1
14:35 1013 29.91 842 24.86 19.5 67.2 79 15.9 60.6
14:40 1013 29.91 842 24.86 19.2 66.5 83 16.4 61.4
14:45 1013 29.91 842 24.86 19.4 66.9 81 16.1 61
14:50 1013 29.91 842 24.86 19.1 66.4 85 16.6 61.8
14:55 1013 29.91 842 24.86 19.1 66.4 84 16.4 61.5
15:00 1013 29.91 842 24.86 19.8 67.6 80 16.3 61.4
15:05 1012 29.88 842 24.86 20.4 68.8 70 14.9 58.8
15:10 1012 29.88 841 24.83 20.6 69.2 69 14.9 58.8
15:15 1012 29.88 841 24.83 20.8 69.5 61 13.1 55.6
15:20 1012 29.88 841 24.83 21.2 70.1 57 12.4 54.3
15:25 1012 29.88 841 24.83 21.8 71.2 56 12.7 54.8
15:30 1012 29.88 841 24.83 21.8 71.2 56 12.7 54.8
15:35 1012 29.88 841 24.83 22.1 71.7 53 12.2 53.9
15:40 1012 29.88 841 24.83 22.1 71.8 53 12.2 54
15:45 1012 29.88 841 24.83 22.1 71.9 53 12.4 54.3
15:50 1012 29.88 841 24.83 22.3 72.1 53 12.4 54.3
15:55 1012 29.88 841 24.83 22.4 72.4 53 12.5 54.5
16:00 1012 29.88 841 24.83 22.8 73 52 12.5 54.5
16:05 1011 29.85 841 24.83 22.9 73.2 51 12.3 54.2
16:10 1011 29.85 841 24.83 23 73.5 49 11.8 53.3
16:15 1011 29.85 841 24.83 23.7 74.7 46 11.7 53
16:20 1011 29.85 841 24.83 24 75.1 45 11.5 52.8
16:25 1011 29.85 841 24.83 24 75.1 44 11.1 52
16:30 1011 29.85 841 24.83 23.9 75 45 11.5 52.7
16:35 1012 29.88 841 24.83 23.8 74.9 45 11.3 52.3
16:40 1011 29.85 841 24.83 23.8 74.9 45 11.4 52.4
16:45 1012 29.88 841 24.83 23.8 74.8 57 14.9 58.9
16:50 1012 29.88 841 24.83 22.7 72.8 61 14.9 58.8
16:55 1012 29.88 841 24.83 22.4 72.4 61 14.6 58.3
17:00 1012 29.88 841 24.83 22.6 72.7 59 14.3 57.8
17:05 1012 29.88 841 24.83 22.2 72 61 14.6 58.2
17:10 1012 29.88 841 24.83 21.8 71.2 64 14.8 58.6
17:15 1012 29.88 841 24.83 21.9 71.5 63 14.6 58.3
17:20 1012 29.88 841 24.83 22 71.5 61 14.3 57.7
17:25 1012 29.88 841 24.83 21.8 71.2 60 13.9 57
17:30 1012 29.88 841 24.83 21.5 70.6 62 14.1 57.3
17:35 1012 29.88 841 24.83 21 69.8 63 13.8 56.8
17:40 1012 29.88 841 24.83 20.7 69.3 64 13.8 56.9
17:45 1012 29.88 841 24.83 20.6 69 64 13.6 56.5
17:50 1011 29.85 841 24.83 20.8 69.4 62 13.4 56.2
17:55 1011 29.85 840 24.81 20.9 69.7 63 13.8 56.9
18:00 1011 29.85 840 24.81 20.9 69.7 64 13.9 57
18:05 1011 29.85 840 24.81 20.9 69.5 63 13.7 56.7
18:10 1011 29.85 840 24.81 20.8 69.5 64 13.8 56.9
18:15 1011 29.85 840 24.81 20.8 69.5 64 13.9 57.1
18:20 1011 29.85 840 24.81 20.9 69.6 64 14 57.1
18:25 1011 29.85 840 24.81 21 69.9 64 14.1 57.4
18:30 1011 29.85 840 24.81 21 69.7 65 14.3 57.7
18:35 1011 29.85 840 24.81 21 69.7 63 13.9 56.9
18:40 1011 29.85 840 24.81 21.1 70 61 13.5 56.4
18:45 1011 29.85 840 24.81 21.3 70.4 60 13.3 55.9
18:50 1011 29.85 840 24.81 21.6 70.9 58 13.2 55.8
18:55 1011 29.85 840 24.81 21.9 71.4 59 13.5 56.3
19:00 1011 29.85 840 24.81 22.3 72.1 59 14.1 57.4
19:05 1011 29.85 840 24.81 22.2 72 57 13.5 56.2
19:10 1010 29.83 840 24.81 22.2 71.9 55 12.8 55.1
19:15 1010 29.83 840 24.81 22.1 71.7 55 12.8 55
19:20 1010 29.83 840 24.81 22 71.6 56 13 55.4
19:25 1011 29.85 840 24.81 22 71.5 58 13.5 56.3
19:30 1011 29.85 840 24.81 22 71.7 58 13.5 56.4
19:35 1011 29.85 840 24.81 22.2 71.9 57 13.3 55.9
19:40 1010 29.83 840 24.81 22.1 71.8 53 12.3 54.2
19:45 1010 29.83 840 24.81 22.4 72.2 52 12.2 53.9
19:50 1010 29.83 840 24.81 22.5 72.5 49 11.5 52.8
19:55 1010 29.83 840 24.81 22.3 72.2 51 12 53.6
20:00 1010 29.83 840 24.81 22.2 71.9 50 11.4 52.6
20:05 1010 29.83 840 24.81 22.2 72 47 10.6 51.1
20:10 1010 29.83 840 24.81 22.4 72.3 48 11 51.8
20:15 1010 29.83 839 24.78 22.4 72.3 46 10.3 50.6
20:20 1010 29.83 839 24.78 22.5 72.5 46 10.6 51.1
20:25 1010 29.83 839 24.78 22.4 72.2 46 10.4 50.7
20:30 1010 29.83 840 24.81 22.2 72 47 10.5 50.9
20:35 1010 29.83 839 24.78 22 71.5 48 10.5 50.9
20:40 1010 29.83 839 24.78 21.8 71.2 46 9.9 49.8
20:45 1010 29.83 840 24.81 21.9 71.4 46 9.9 49.9
20:50 1010 29.83 839 24.78 21.8 71.3 48 10.5 51
20:55 1010 29.83 839 24.78 21.6 70.8 47 10.1 50.1
21:00 1010 29.83 839 24.78 21.6 70.9 48 10.2 50.4
21:05 1010 29.83 839 24.78 21.3 70.3 49 10.2 50.4
21:10 1010 29.83 839 24.78 21.2 70.1 50 10.4 50.7
21:15 1010 29.83 839 24.78 20.8 69.5 52 10.7 51.2
21:20 1010 29.83 839 24.78 20.5 68.8 53 10.6 51.1
21:25 1010 29.83 839 24.78 20.4 68.7 51 10 50
21:30 1010 29.83 839 24.78 20.6 69 49 9.6 49.3
21:35 1010 29.83 839 24.78 20.6 69 49 9.7 49.4
21:40 1010 29.83 839 24.78 20.8 69.4 47 9.1 48.4
21:45 1010 29.83 839 24.78 20.7 69.3 48 9.4 48.9
21:50 1010 29.83 839 24.78 20.5 68.9 47 9 48.1
21:55 1010 29.83 840 24.81 20.3 68.5 51 9.9 49.9
22:00 1010 29.83 840 24.81 19.9 67.8 48 8.8 47.8
22:05 1010 29.83 840 24.81 20.8 69.4 45 8.7 47.6
22:10 1010 29.83 840 24.81 20.6 69.1 48 9.3 48.7
22:15 1010 29.83 840 24.81 20.1 68.2 50 9.4 48.9
22:20 1010 29.83 840 24.81 19.8 67.6 50 9.3 48.8
22:25 1010 29.83 840 24.81 19.8 67.7 51 9.6 49.3
22:30 1010 29.83 840 24.81 19.8 67.7 51 9.6 49.2
22:35 1010 29.83 840 24.81 19.7 67.5 53 9.9 49.8
22:40 1010 29.83 840 24.81 19.3 66.8 53 9.8 49.6
22:45 1010 29.83 839 24.78 19.3 66.7 53 9.5 49.1
22:50 1010 29.83 839 24.78 19.1 66.4 55 9.9 49.8
22:55 1010 29.83 839 24.78 18.9 66.1 55 9.7 49.5
23:00 1010 29.83 839 24.78 18.8 65.9 56 9.9 49.7
23:05 1010 29.83 839 24.78 18.6 65.5 56 9.8 49.6
23:10 1010 29.83 839 24.78 18.4 65.2 57 9.8 49.6
23:15 1010 29.83 840 24.81 18.4 65.1 58 10.2 50.3
23:20 1010 29.83 840 24.81 17.9 64.2 58 9.5 49.1
23:25 1010 29.83 840 24.81 18.3 65 56 9.6 49.3
23:30 1010 29.83 840 24.81 18.5 65.2 55 9.3 48.7
23:35 1010 29.83 840 24.81 18.7 65.7 56 9.8 49.6
23:40 1011 29.85 840 24.81 18.5 65.3 55 9.4 48.9
23:45 1011 29.85 840 24.81 18.2 64.7 58 9.8 49.7
23:50 1011 29.85 840 24.81 17.7 63.9 65 11.1 52
23:55 1011 29.85 840 24.81 17.3 63.1 69 11.7 53
24:00 1011 29.85 840 24.81 16.9 62.3 72 11.8 53.3